createdAt,value
2022-10-26T00:01:03.368Z,100120
2022-10-26T00:02:55.189Z,100120
2022-10-26T00:04:54.000Z,100120
2022-10-26T00:06:53.881Z,100120
2022-10-26T00:08:55.435Z,100120
2022-10-26T00:10:56.823Z,100120
2022-10-26T00:12:53.557Z,100120
2022-10-26T00:14:53.431Z,100120
2022-10-26T00:16:53.364Z,100120
2022-10-26T00:18:53.217Z,100120
2022-10-26T00:20:53.196Z,100120
2022-10-26T00:22:52.988Z,100120
2022-10-26T00:24:53.031Z,100120
2022-10-26T00:26:52.880Z,100120
2022-10-26T00:28:53.281Z,100120
2022-10-26T00:30:52.628Z,100120
2022-10-26T00:32:52.724Z,100120
2022-10-26T00:34:52.358Z,100120
2022-10-26T00:36:52.359Z,100120
2022-10-26T00:38:54.304Z,100120
2022-10-26T00:40:52.083Z,100120
2022-10-26T00:42:52.093Z,100120
2022-10-26T00:44:57.439Z,100110
2022-10-26T00:46:51.699Z,100110
2022-10-26T00:48:55.707Z,100110
2022-10-26T00:50:53.401Z,100110
2022-10-26T00:52:53.095Z,100110
2022-10-26T00:54:52.608Z,100110
2022-10-26T00:56:53.892Z,100110
2022-10-26T00:58:51.518Z,100110
2022-10-26T01:00:51.301Z,100110
2022-10-26T01:02:54.320Z,100110
2022-10-26T01:04:52.913Z,100110
2022-10-26T01:06:52.525Z,100110
2022-10-26T01:08:50.538Z,100110
2022-10-26T01:10:51.081Z,100110
2022-10-26T01:12:50.385Z,100110
2022-10-26T01:14:50.018Z,100110
2022-10-26T01:17:04.921Z,100110
2022-10-26T01:19:02.812Z,100110
2022-10-26T01:21:13.635Z,100110
2022-10-26T01:22:57.826Z,100110
2022-10-26T01:25:01.410Z,100110
2022-10-26T01:27:19.074Z,100110
2022-10-26T01:29:08.935Z,100110
2022-10-26T01:30:49.512Z,100110
2022-10-26T01:33:08.347Z,100110
2022-10-26T01:34:55.884Z,100110
2022-10-26T01:36:54.232Z,100110
2022-10-26T01:38:56.900Z,100110
2022-10-26T01:40:58.454Z,100110
2022-10-26T01:42:50.977Z,100110
2022-10-26T01:44:55.699Z,100110
2022-10-26T01:46:51.058Z,100110
2022-10-26T01:48:51.366Z,100110
2022-10-26T01:50:52.983Z,100110
2022-10-26T01:52:49.031Z,100110
2022-10-26T01:54:47.608Z,100110
2022-10-26T01:56:51.152Z,100110
2022-10-26T01:59:10.241Z,100110
2022-10-26T02:00:58.212Z,100110
2022-10-26T02:02:59.969Z,100110
2022-10-26T02:05:03.238Z,100110
2022-10-26T02:06:57.735Z,100110
2022-10-26T02:08:57.669Z,100110
2022-10-26T02:11:00.468Z,100110
2022-10-26T02:12:57.584Z,100110
2022-10-26T02:14:50.152Z,100110
2022-10-26T02:16:53.990Z,100110
2022-10-26T02:18:54.718Z,100110
2022-10-26T02:20:50.587Z,100110
2022-10-26T02:22:49.672Z,100110
2022-10-26T02:24:49.672Z,100110
2022-10-26T02:26:49.181Z,100110
2022-10-26T02:28:50.087Z,100110
2022-10-26T02:30:47.389Z,100110
2022-10-26T02:32:50.409Z,100110
2022-10-26T02:34:48.838Z,100110
2022-10-26T02:36:47.477Z,100110
2022-10-26T02:38:46.873Z,100110
2022-10-26T02:40:47.723Z,100110
2022-10-26T02:42:46.437Z,100110
2022-10-26T02:44:49.598Z,100110
2022-10-26T02:46:44.858Z,100110
2022-10-26T02:48:44.514Z,100110
2022-10-26T02:50:57.163Z,100110
2022-10-26T02:52:53.978Z,100110
2022-10-26T02:54:52.404Z,100110
2022-10-26T02:56:50.931Z,100110
2022-10-26T02:58:49.069Z,100110
2022-10-26T03:00:45.285Z,100110
2022-10-26T03:02:48.404Z,100110
2022-10-26T03:04:43.325Z,100110
2022-10-26T03:06:51.810Z,100110
2022-10-26T03:08:42.992Z,100110
2022-10-26T03:10:44.474Z,100120
2022-10-26T03:12:42.869Z,100120
2022-10-26T03:14:42.862Z,100120
2022-10-26T03:16:42.567Z,100120
2022-10-26T03:18:42.460Z,100120
2022-10-26T03:20:43.649Z,100120
2022-10-26T03:22:42.211Z,100120
2022-10-26T03:24:42.193Z,100120
2022-10-26T03:26:42.032Z,100120
2022-10-26T03:28:41.727Z,100120
2022-10-26T03:30:41.899Z,100120
2022-10-26T03:32:41.491Z,100120
2022-10-26T03:34:41.401Z,100120
2022-10-26T03:36:41.270Z,100120
2022-10-26T03:38:39.663Z,100120
2022-10-26T03:38:47.040Z,100120
2022-10-26T03:39:04.601Z,100120
2022-10-26T03:39:08.605Z,100120
2022-10-26T03:40:40.964Z,100120
2022-10-26T03:42:41.041Z,100120
2022-10-26T03:44:40.793Z,100120
2022-10-26T03:46:40.642Z,100120
2022-10-26T03:48:40.429Z,100120
2022-10-26T03:50:40.870Z,100120
2022-10-26T03:52:41.951Z,100120
2022-10-26T03:54:39.986Z,100120
2022-10-26T03:56:39.938Z,100120
2022-10-26T03:58:39.757Z,100120
2022-10-26T04:00:24.447Z,100120
2022-10-26T04:02:22.449Z,100120
2022-10-26T04:02:39.465Z,100120
2022-10-26T04:04:39.941Z,100120
2022-10-26T04:06:39.304Z,100120
2022-10-26T04:08:39.063Z,100120
2022-10-26T04:10:38.844Z,100120
2022-10-26T04:12:38.996Z,100120
2022-10-26T04:14:38.616Z,100120
2022-10-26T04:16:38.631Z,100120
2022-10-26T04:18:38.276Z,100120
2022-10-26T04:20:39.220Z,100120
2022-10-26T04:22:08.423Z,100120
2022-10-26T04:22:10.691Z,100120
2022-10-26T04:22:38.234Z,100120
2022-10-26T04:24:37.930Z,100120
2022-10-26T04:26:37.797Z,100120
2022-10-26T04:28:37.855Z,100120
2022-10-26T04:30:38.045Z,100120
2022-10-26T04:32:37.367Z,100120
2022-10-26T04:34:37.250Z,100120
2022-10-26T04:36:37.147Z,100120
2022-10-26T04:38:37.061Z,100130
2022-10-26T04:40:36.900Z,100130
2022-10-26T04:42:45.298Z,100130
2022-10-26T04:44:36.631Z,100130
2022-10-26T04:46:36.428Z,100130
2022-10-26T04:48:36.540Z,100130
2022-10-26T04:50:38.760Z,100130
2022-10-26T04:52:36.508Z,100130
2022-10-26T04:54:35.907Z,100130
2022-10-26T04:56:36.024Z,100130
2022-10-26T04:58:35.666Z,100130
2022-10-26T05:00:35.599Z,100130
2022-10-26T05:02:35.560Z,100130
2022-10-26T05:04:35.352Z,100130
2022-10-26T05:06:35.272Z,100130
2022-10-26T05:08:35.009Z,100130
2022-10-26T05:10:34.965Z,100130
2022-10-26T05:12:34.903Z,100130
2022-10-26T05:14:34.749Z,100130
2022-10-26T05:16:34.514Z,100130
2022-10-26T05:18:34.426Z,100130
2022-10-26T05:20:35.352Z,100130
2022-10-26T05:22:34.177Z,100120
2022-10-26T05:24:34.062Z,100120
2022-10-26T05:26:33.939Z,100120
2022-10-26T05:28:33.780Z,100120
2022-10-26T05:30:33.739Z,100120
2022-10-26T05:32:33.518Z,100120
2022-10-26T05:34:37.174Z,100120
2022-10-26T05:36:33.273Z,100120
2022-10-26T05:38:33.221Z,100120
2022-10-26T05:40:33.085Z,100120
2022-10-26T05:42:33.037Z,100120
2022-10-26T05:44:32.879Z,100120
2022-10-26T05:46:32.684Z,100120
2022-10-26T05:48:32.655Z,100120
2022-10-26T05:50:32.586Z,100120
2022-10-26T05:52:38.310Z,100120
2022-10-26T05:54:32.338Z,100120
2022-10-26T05:56:35.629Z,100120
2022-10-26T05:58:33.351Z,100120
2022-10-26T06:00:32.717Z,100120
2022-10-26T06:02:38.635Z,100120
2022-10-26T06:04:36.592Z,100130
2022-10-26T06:06:39.043Z,100130
2022-10-26T06:08:32.113Z,100130
2022-10-26T06:10:32.452Z,100130
2022-10-26T06:12:32.114Z,100130
2022-10-26T06:14:32.175Z,100130
2022-10-26T06:16:41.343Z,100130
2022-10-26T06:18:42.709Z,100130
2022-10-26T06:20:43.242Z,100130
2022-10-26T06:22:43.246Z,100130
2022-10-26T06:24:42.233Z,100130
2022-10-26T06:26:40.243Z,100130
2022-10-26T06:28:41.195Z,100130
2022-10-26T06:30:30.804Z,100130
2022-10-26T06:32:31.197Z,100130
2022-10-26T06:34:35.540Z,100130
2022-10-26T06:36:31.625Z,100130
2022-10-26T06:38:34.088Z,100130
2022-10-26T06:40:32.634Z,100130
2022-10-26T06:42:31.557Z,100130
2022-10-26T06:44:30.752Z,100130
2022-10-26T06:46:37.943Z,100130
2022-10-26T06:48:43.819Z,100130
2022-10-26T06:50:35.964Z,100130
2022-10-26T06:52:36.772Z,100130
2022-10-26T06:54:46.056Z,100130
2022-10-26T06:56:31.174Z,100130
2022-10-26T06:58:33.815Z,100130
2022-10-26T07:02:29.845Z,100130
2022-10-26T07:04:29.634Z,100130
2022-10-26T07:06:29.768Z,100130
2022-10-26T07:08:31.332Z,100130
2022-10-26T07:10:29.215Z,100130
2022-10-26T07:12:32.203Z,100130
2022-10-26T07:14:29.237Z,100120
2022-10-26T07:16:29.355Z,100120
2022-10-26T07:18:28.973Z,100110
2022-10-26T07:20:28.962Z,100110
2022-10-26T07:22:28.903Z,100110
2022-10-26T07:24:29.557Z,100110
2022-10-26T07:26:28.866Z,100100
2022-10-26T07:28:28.731Z,100100
2022-10-26T07:30:29.664Z,100100
2022-10-26T07:32:28.626Z,100100
2022-10-26T07:34:28.566Z,100100
2022-10-26T07:36:28.874Z,100100
2022-10-26T07:38:28.438Z,100100
2022-10-26T07:40:28.459Z,100100
2022-10-26T07:42:28.417Z,100100
2022-10-26T07:44:28.336Z,100100
2022-10-26T07:46:28.696Z,100110
2022-10-26T07:48:28.364Z,100110
2022-10-26T07:50:29.081Z,100110
2022-10-26T07:52:28.215Z,100110
2022-10-26T07:54:28.189Z,100110
2022-10-26T07:56:29.631Z,100110
2022-10-26T07:58:28.166Z,100120
2022-10-26T08:00:28.309Z,100120
2022-10-26T08:02:28.065Z,100120
2022-10-26T08:04:28.041Z,100120
2022-10-26T08:06:28.071Z,100120
2022-10-26T08:08:28.067Z,100120
2022-10-26T08:10:27.979Z,100120
2022-10-26T08:12:33.886Z,100120
2022-10-26T08:14:38.400Z,100120
2022-10-26T08:16:28.197Z,100120
2022-10-26T08:18:28.263Z,100120
2022-10-26T08:20:27.906Z,100120
2022-10-26T08:22:28.845Z,100120
2022-10-26T08:24:28.878Z,100120
2022-10-26T08:26:27.912Z,100120
2022-10-26T08:28:28.710Z,100120
2022-10-26T08:30:27.943Z,100120
2022-10-26T08:32:27.812Z,100120
2022-10-26T08:34:27.850Z,100120
2022-10-26T08:36:28.545Z,100120
2022-10-26T08:38:28.699Z,100120
2022-10-26T08:40:31.030Z,100120
2022-10-26T08:42:32.222Z,100120
2022-10-26T08:44:34.260Z,100120
2022-10-26T08:46:32.416Z,100120
2022-10-26T08:48:35.124Z,100120
2022-10-26T08:50:32.052Z,100120
2022-10-26T08:52:34.498Z,100120
2022-10-26T08:54:36.384Z,100110
2022-10-26T08:56:34.673Z,100110
2022-10-26T08:58:37.110Z,100110
2022-10-26T09:00:29.746Z,100110
2022-10-26T09:02:28.117Z,100110
2022-10-26T09:04:30.934Z,100110
2022-10-26T09:06:39.012Z,100110
2022-10-26T09:08:36.696Z,100110
2022-10-26T09:10:38.561Z,100110
2022-10-26T09:12:38.271Z,100110
2022-10-26T09:14:39.204Z,100110
2022-10-26T09:16:35.916Z,100110
2022-10-26T09:18:42.343Z,100110
2022-10-26T09:20:48.797Z,100110
2022-10-26T09:22:36.732Z,100110
2022-10-26T09:24:31.388Z,100110
2022-10-26T09:26:35.776Z,100110
2022-10-26T09:28:32.264Z,100110
2022-10-26T09:30:28.423Z,100110
2022-10-26T09:32:36.275Z,100110
2022-10-26T09:34:36.467Z,100110
2022-10-26T09:36:28.208Z,100110
2022-10-26T09:38:30.775Z,100110
2022-10-26T09:40:35.724Z,100110
2022-10-26T09:42:38.090Z,100110
2022-10-26T09:44:31.374Z,100110
2022-10-26T09:46:32.904Z,100110
2022-10-26T09:48:34.862Z,100110
2022-10-26T09:50:33.097Z,100110
2022-10-26T09:52:27.947Z,100110
2022-10-26T09:54:27.766Z,100110
2022-10-26T09:56:29.606Z,100110
2022-10-26T09:58:30.971Z,100110
2022-10-26T10:02:37.613Z,100110
2022-10-26T10:04:31.085Z,100110
2022-10-26T10:06:27.799Z,100110
2022-10-26T10:08:27.834Z,100110
2022-10-26T10:10:27.899Z,100110
2022-10-26T10:12:27.830Z,100110
2022-10-26T10:14:29.875Z,100110
2022-10-26T10:16:27.901Z,100110
2022-10-26T10:18:28.065Z,100110
2022-10-26T10:20:31.743Z,100100
2022-10-26T10:22:27.897Z,100100
2022-10-26T10:24:30.085Z,100100
2022-10-26T10:26:27.945Z,100100
2022-10-26T10:28:29.021Z,100100
2022-10-26T10:30:30.818Z,100100
2022-10-26T10:32:30.078Z,100100
2022-10-26T10:34:30.818Z,100100
2022-10-26T10:36:29.553Z,100100
2022-10-26T10:38:28.467Z,100100
2022-10-26T10:40:30.234Z,100100
2022-10-26T10:42:32.034Z,100100
2022-10-26T10:44:30.317Z,100100
2022-10-26T10:46:28.726Z,100100
2022-10-26T10:48:29.046Z,100100
2022-10-26T10:50:29.165Z,100100
2022-10-26T10:52:30.528Z,100100
2022-10-26T10:54:31.941Z,100100
2022-10-26T10:56:33.537Z,100090
2022-10-26T10:58:36.722Z,100090
2022-10-26T11:00:30.362Z,100090
2022-10-26T11:02:53.462Z,100090
2022-10-26T11:04:44.269Z,100090
2022-10-26T11:06:29.919Z,100090
2022-10-26T11:08:34.896Z,100080
2022-10-26T11:10:32.475Z,100080
2022-10-26T11:12:32.315Z,100080
2022-10-26T11:14:32.968Z,100080
2022-10-26T11:16:32.672Z,100080
2022-10-26T11:18:33.507Z,100080
2022-10-26T11:20:29.226Z,100080
2022-10-26T11:22:35.082Z,100080
2022-10-26T11:24:34.935Z,100080
2022-10-26T11:26:32.827Z,100080
2022-10-26T11:28:38.739Z,100080
2022-10-26T11:30:33.231Z,100080
2022-10-26T11:32:34.269Z,100080
2022-10-26T11:34:37.078Z,100080
2022-10-26T11:36:32.347Z,100080
2022-10-26T11:38:46.298Z,100080
2022-10-26T11:40:39.395Z,100070
2022-10-26T11:42:39.777Z,100070
2022-10-26T11:44:35.005Z,100060
2022-10-26T11:46:34.859Z,100060
2022-10-26T11:48:36.906Z,100060
2022-10-26T11:50:32.999Z,100060
2022-10-26T11:52:37.542Z,100060
2022-10-26T11:54:33.598Z,100060
2022-10-26T11:56:35.119Z,100060
2022-10-26T11:58:31.820Z,100060
2022-10-26T12:00:30.503Z,100060
2022-10-26T12:02:29.795Z,100060
2022-10-26T12:04:33.078Z,100060
2022-10-26T12:06:32.132Z,100060
2022-10-26T12:08:34.993Z,100060
2022-10-26T12:10:31.354Z,100060
2022-10-26T12:12:38.160Z,100060
2022-10-26T12:14:38.639Z,100060
2022-10-26T12:16:49.329Z,100060
2022-10-26T12:18:54.391Z,100060
2022-10-26T12:20:53.287Z,100060
2022-10-26T12:22:33.269Z,100060
2022-10-26T12:24:30.846Z,100060
2022-10-26T12:26:49.441Z,100060
2022-10-26T12:28:43.829Z,100060
2022-10-26T12:30:31.301Z,100060
2022-10-26T12:32:49.901Z,100060
2022-10-26T12:34:57.445Z,100060
2022-10-26T12:36:47.373Z,100060
2022-10-26T12:38:57.548Z,100060
2022-10-26T12:40:44.212Z,100060
2022-10-26T12:42:29.571Z,100060
2022-10-26T12:44:35.339Z,100060
2022-10-26T12:46:39.973Z,100060
2022-10-26T12:48:39.940Z,100060
2022-10-26T12:50:29.601Z,100060
2022-10-26T12:52:37.551Z,100060
2022-10-26T12:54:39.588Z,100060
2022-10-26T12:56:34.977Z,100060
2022-10-26T12:58:49.124Z,100060
2022-10-26T13:00:32.106Z,100060
2022-10-26T13:02:45.156Z,100060
2022-10-26T13:04:58.347Z,100060
2022-10-26T13:06:45.040Z,100060
2022-10-26T13:08:39.994Z,100060
2022-10-26T13:10:29.981Z,100060
2022-10-26T13:12:38.101Z,100060
2022-10-26T13:14:35.772Z,100060
2022-10-26T13:16:30.080Z,100050
2022-10-26T13:18:29.908Z,100050
2022-10-26T13:20:31.090Z,100050
2022-10-26T13:22:31.189Z,100050
2022-10-26T13:24:33.451Z,100050
2022-10-26T13:26:31.212Z,100050
2022-10-26T13:28:33.870Z,100050
2022-10-26T13:30:43.022Z,100050
2022-10-26T13:32:30.162Z,100050
2022-10-26T13:34:32.370Z,100060
2022-10-26T13:36:35.774Z,100050
2022-10-26T13:38:33.814Z,100050
2022-10-26T13:40:30.068Z,100050
2022-10-26T13:42:41.886Z,100050
2022-10-26T13:44:38.244Z,100050
2022-10-26T13:46:34.012Z,100050
2022-10-26T13:48:36.768Z,100050
2022-10-26T13:50:37.009Z,100050
2022-10-26T13:52:35.080Z,100050
2022-10-26T13:54:35.433Z,100050
2022-10-26T13:56:33.582Z,100050
2022-10-26T13:58:36.418Z,100050
2022-10-26T14:00:30.141Z,100050
2022-10-26T14:02:29.681Z,100050
2022-10-26T14:04:29.587Z,100050
2022-10-26T14:06:33.590Z,100050
2022-10-26T14:08:29.584Z,100050
2022-10-26T14:10:33.994Z,100060
2022-10-26T14:12:30.118Z,100060
2022-10-26T14:14:32.706Z,100060
2022-10-26T14:16:32.278Z,100060
2022-10-26T14:18:31.064Z,100060
2022-10-26T14:20:31.332Z,100060
2022-10-26T14:22:29.782Z,100060
2022-10-26T14:24:46.290Z,100060
2022-10-26T14:26:37.157Z,100060
2022-10-26T14:28:31.685Z,100060
2022-10-26T14:30:31.964Z,100060
2022-10-26T14:32:31.343Z,100060
2022-10-26T14:34:29.529Z,100060
2022-10-26T14:36:36.080Z,100060
2022-10-26T14:38:37.166Z,100060
2022-10-26T14:40:33.660Z,100060
2022-10-26T14:42:32.745Z,100060
2022-10-26T14:44:30.000Z,100060
2022-10-26T14:46:35.052Z,100060
2022-10-26T14:48:31.802Z,100060
2022-10-26T14:50:30.530Z,100060
2022-10-26T14:52:31.984Z,100060
2022-10-26T14:54:30.088Z,100060
2022-10-26T14:56:39.315Z,100060
2022-10-26T14:58:30.545Z,100060
2022-10-26T15:00:29.718Z,100060
2022-10-26T15:02:30.049Z,100060
2022-10-26T15:04:33.454Z,100060
2022-10-26T15:06:36.274Z,100060
2022-10-26T15:08:56.284Z,100060
2022-10-26T15:10:46.050Z,100060
2022-10-26T15:12:32.935Z,100050
2022-10-26T15:14:30.256Z,100040
2022-10-26T15:16:33.305Z,100040
2022-10-26T15:18:34.518Z,100040
2022-10-26T15:20:30.367Z,100040
2022-10-26T15:22:31.997Z,100040
2022-10-26T15:24:37.767Z,100040
2022-10-26T15:26:29.955Z,100050
2022-10-26T15:28:31.911Z,100050
2022-10-26T15:30:29.383Z,100050
2022-10-26T15:32:31.255Z,100050
2022-10-26T15:34:29.231Z,100050
2022-10-26T15:36:30.420Z,100050
2022-10-26T15:38:31.889Z,100050
2022-10-26T15:40:31.284Z,100050
2022-10-26T15:42:29.176Z,100050
2022-10-26T15:44:29.149Z,100050
2022-10-26T15:46:31.874Z,100050
2022-10-26T15:48:31.400Z,100050
2022-10-26T15:50:29.049Z,100050
2022-10-26T15:52:30.554Z,100050
2022-10-26T15:54:29.002Z,100050
2022-10-26T15:56:30.460Z,100050
2022-10-26T15:58:30.981Z,100050
2022-10-26T16:00:28.932Z,100050
2022-10-26T16:02:28.888Z,100050
2022-10-26T16:04:28.763Z,100050
2022-10-26T16:06:31.542Z,100050
2022-10-26T16:08:30.709Z,100050
2022-10-26T16:10:28.699Z,100050
2022-10-26T16:12:28.592Z,100050
2022-10-26T16:14:33.361Z,100050
2022-10-26T16:16:28.639Z,100050
2022-10-26T16:18:28.510Z,100050
2022-10-26T16:20:28.481Z,100050
2022-10-26T16:22:28.411Z,100050
2022-10-26T16:24:30.214Z,100050
2022-10-26T16:26:28.322Z,100050
2022-10-26T16:28:28.917Z,100050
2022-10-26T16:30:30.522Z,100050
2022-10-26T16:32:28.228Z,100050
2022-10-26T16:34:28.139Z,100050
2022-10-26T16:36:28.071Z,100050
2022-10-26T16:38:29.763Z,100050
2022-10-26T16:40:28.007Z,100050
2022-10-26T16:42:30.252Z,100050
2022-10-26T16:44:27.953Z,100050
2022-10-26T16:46:27.997Z,100050
2022-10-26T16:48:27.864Z,100050
2022-10-26T16:50:29.295Z,100050
2022-10-26T16:52:27.787Z,100050
2022-10-26T16:54:27.733Z,100050
2022-10-26T16:56:29.519Z,100050
2022-10-26T16:58:27.621Z,100050
2022-10-26T17:00:27.636Z,100050
2022-10-26T17:02:27.724Z,100050
2022-10-26T17:04:27.466Z,100050
2022-10-26T17:06:27.458Z,100050
2022-10-26T17:08:28.436Z,100050
2022-10-26T17:10:27.349Z,100060
2022-10-26T17:14:27.244Z,100060
2022-10-26T17:16:27.325Z,100060
2022-10-26T17:18:27.213Z,100060
2022-10-26T17:20:27.117Z,100050
2022-10-26T17:22:27.083Z,100050
2022-10-26T17:24:27.092Z,100050
2022-10-26T17:26:27.677Z,100050
2022-10-26T17:28:26.889Z,100050
2022-10-26T17:30:31.582Z,100050
2022-10-26T17:32:26.788Z,100050
2022-10-26T17:34:26.986Z,100050
2022-10-26T17:36:26.854Z,100050
2022-10-26T17:38:29.398Z,100050
2022-10-26T17:40:26.963Z,100050
2022-10-26T17:42:26.698Z,100050
2022-10-26T17:44:26.960Z,100060
2022-10-26T17:46:26.557Z,100050
2022-10-26T17:48:27.003Z,100050
2022-10-26T17:50:26.429Z,100050
2022-10-26T17:52:26.377Z,100050
2022-10-26T17:54:26.352Z,100060
2022-10-26T17:56:28.895Z,100050
2022-10-26T17:58:26.374Z,100050
2022-10-26T18:00:26.171Z,100050
2022-10-26T18:02:26.642Z,100050
2022-10-26T18:04:26.222Z,100050
2022-10-26T18:06:26.108Z,100050
2022-10-26T18:08:26.141Z,100050
2022-10-26T18:10:37.600Z,100050
2022-10-26T18:12:25.856Z,100050
2022-10-26T18:14:25.814Z,100050
2022-10-26T18:16:26.910Z,100050
2022-10-26T18:18:25.676Z,100050
2022-10-26T18:20:25.713Z,100050
2022-10-26T18:22:25.551Z,100050
2022-10-26T18:24:25.574Z,100050
2022-10-26T18:26:26.925Z,100050
2022-10-26T18:28:25.360Z,100050
2022-10-26T18:30:25.558Z,100050
2022-10-26T18:32:25.308Z,100050
2022-10-26T18:34:25.300Z,100050
2022-10-26T18:36:26.602Z,100050
2022-10-26T18:38:25.243Z,100050
2022-10-26T18:40:25.050Z,100060
2022-10-26T18:42:25.081Z,100060
2022-10-26T18:44:24.958Z,100060
2022-10-26T18:46:26.388Z,100060
2022-10-26T18:48:24.815Z,100060
2022-10-26T18:50:24.648Z,100060
2022-10-26T18:52:25.504Z,100060
2022-10-26T18:54:27.194Z,100060
2022-10-26T18:56:24.909Z,100060
2022-10-26T18:58:24.471Z,100060
2022-10-26T19:00:24.468Z,100060
2022-10-26T19:02:24.403Z,100060
2022-10-26T19:04:24.312Z,100060
2022-10-26T19:06:26.631Z,100060
2022-10-26T19:08:27.816Z,100060
2022-10-26T19:10:24.249Z,100060
2022-10-26T19:12:24.016Z,100060
2022-10-26T19:14:24.108Z,100070
2022-10-26T19:16:45.716Z,100070
2022-10-26T19:18:23.831Z,100070
2022-10-26T19:20:23.837Z,100070
2022-10-26T19:22:23.756Z,100070
2022-10-26T19:24:23.637Z,100070
2022-10-26T19:26:27.982Z,100070
2022-10-26T19:28:23.782Z,100070
2022-10-26T19:30:23.428Z,100070
2022-10-26T19:32:26.255Z,100070
2022-10-26T19:34:23.317Z,100070
2022-10-26T19:36:23.526Z,100070
2022-10-26T19:38:23.606Z,100070
2022-10-26T19:40:23.322Z,100070
2022-10-26T19:42:23.146Z,100070
2022-10-26T19:44:25.382Z,100070
2022-10-26T19:46:25.272Z,100070
2022-10-26T19:48:23.003Z,100070
2022-10-26T19:50:22.947Z,100070
2022-10-26T19:52:22.784Z,100070
2022-10-26T19:54:22.699Z,100070
2022-10-26T19:56:22.624Z,100060
2022-10-26T19:58:23.521Z,100060
2022-10-26T20:00:22.537Z,100060
2022-10-26T20:02:22.541Z,100060
2022-10-26T20:04:22.526Z,100060
2022-10-26T20:06:22.386Z,100060
2022-10-26T20:08:23.155Z,100060
2022-10-26T20:10:22.795Z,100060
2022-10-26T20:12:22.180Z,100060
2022-10-26T20:14:22.164Z,100060
2022-10-26T20:16:21.940Z,100060
2022-10-26T20:18:22.106Z,100060
2022-10-26T20:20:22.299Z,100060
2022-10-26T20:22:21.738Z,100050
2022-10-26T20:24:22.109Z,100050
2022-10-26T20:26:23.363Z,100050
2022-10-26T20:28:21.621Z,100050
2022-10-26T20:30:21.438Z,100050
2022-10-26T20:32:21.342Z,100050
2022-10-26T20:34:21.324Z,100050
2022-10-26T20:36:21.354Z,100040
2022-10-26T20:38:21.669Z,100040
2022-10-26T20:40:21.989Z,100040
2022-10-26T20:42:23.841Z,100040
2022-10-26T20:44:26.359Z,100040
2022-10-26T20:46:23.675Z,100040
2022-10-26T20:48:21.448Z,100040
2022-10-26T20:50:22.456Z,100040
2022-10-26T20:52:36.647Z,100040
2022-10-26T20:54:25.376Z,100040
2022-10-26T20:56:23.919Z,100040
2022-10-26T20:58:31.397Z,100040
2022-10-26T21:00:20.648Z,100040
2022-10-26T21:02:20.418Z,100040
2022-10-26T21:04:20.040Z,100040
2022-10-26T21:06:20.615Z,100040
2022-10-26T21:08:20.047Z,100040
2022-10-26T21:10:19.775Z,100040
2022-10-26T21:12:19.710Z,100040
2022-10-26T21:14:19.626Z,100040
2022-10-26T21:16:19.635Z,100040
2022-10-26T21:18:19.511Z,100040
2022-10-26T21:20:19.565Z,100040
2022-10-26T21:22:19.337Z,100040
2022-10-26T21:24:19.213Z,100040
2022-10-26T21:26:19.234Z,100040
2022-10-26T21:28:19.078Z,100040
2022-10-26T21:30:19.214Z,100040
2022-10-26T21:32:18.963Z,100030
2022-10-26T21:34:18.792Z,100030
2022-10-26T21:36:18.716Z,100020
2022-10-26T21:38:18.868Z,100020
2022-10-26T21:40:18.535Z,100020
2022-10-26T21:42:18.894Z,100020
2022-10-26T21:44:40.526Z,100020
2022-10-26T21:46:19.843Z,100020
2022-10-26T21:48:18.192Z,100010
2022-10-26T21:50:18.421Z,100010
2022-10-26T21:52:18.029Z,100010
2022-10-26T21:54:18.007Z,100010
2022-10-26T21:56:20.020Z,100010
2022-10-26T21:58:17.855Z,100010
2022-10-26T22:00:17.696Z,100010
2022-10-26T22:02:17.828Z,100010
2022-10-26T22:04:17.479Z,100010
2022-10-26T22:08:17.332Z,100010
2022-10-26T22:10:17.171Z,100010
2022-10-26T22:12:17.237Z,100010
2022-10-26T22:14:18.520Z,100010
2022-10-26T22:16:19.269Z,100010
2022-10-26T22:18:16.903Z,100010
2022-10-26T22:20:16.942Z,100000
2022-10-26T22:22:16.749Z,100000
2022-10-26T22:24:16.774Z,100000
2022-10-26T22:26:18.872Z,100000
2022-10-26T22:28:16.457Z,99990
2022-10-26T22:30:16.324Z,99990
2022-10-26T22:32:16.429Z,99990
2022-10-26T22:34:16.489Z,99990
2022-10-26T22:36:17.617Z,99980
2022-10-26T22:38:16.068Z,99990
2022-10-26T22:40:16.108Z,99990
2022-10-26T22:42:15.692Z,99990
2022-10-26T22:44:15.531Z,99990
2022-10-26T22:46:17.477Z,99990
2022-10-26T22:48:15.401Z,99990
2022-10-26T22:50:15.486Z,99990
2022-10-26T22:52:15.176Z,99990
2022-10-26T22:54:15.054Z,99990
2022-10-26T22:56:15.036Z,99990
2022-10-26T22:58:15.066Z,99990
2022-10-26T23:00:15.915Z,99990
2022-10-26T23:02:14.907Z,99990
2022-10-26T23:04:14.574Z,99990
2022-10-26T23:06:16.298Z,99990
2022-10-26T23:08:14.469Z,99990
2022-10-26T23:10:14.269Z,99990
2022-10-26T23:12:14.136Z,99990
2022-10-26T23:14:14.051Z,99990
2022-10-26T23:16:15.933Z,99980
2022-10-26T23:18:13.833Z,99980
2022-10-26T23:20:13.832Z,99980
2022-10-26T23:22:13.649Z,99980
2022-10-26T23:24:13.530Z,99980
2022-10-26T23:26:16.026Z,99980
2022-10-26T23:28:13.353Z,99980
2022-10-26T23:30:13.538Z,99980
2022-10-26T23:32:13.089Z,99980
2022-10-26T23:34:12.974Z,99980
2022-10-26T23:36:12.998Z,99980
2022-10-26T23:38:12.821Z,99980
2022-10-26T23:40:12.770Z,99980
2022-10-26T23:42:12.617Z,99980
2022-10-26T23:44:12.504Z,99970
2022-10-26T23:46:12.485Z,99970
2022-10-26T23:48:12.448Z,99970
2022-10-26T23:50:12.450Z,99970
2022-10-26T23:52:12.203Z,99970
2022-10-26T23:54:12.060Z,99960
2022-10-26T23:56:11.965Z,99960
2022-10-26T23:58:12.932Z,99960
